sensor_id;sensor_type;location;lat;lon;timestamp;pressure;altitude;pressure_sealevel;temperature;humidity
39699;BME280;25372;50.582;12.250;2022-12-18T00:00:47;101389.25;;;-10.76;98.76
39699;BME280;25372;50.582;12.250;2022-12-18T00:11:11;101391.84;;;-10.79;98.90
39699;BME280;25372;50.582;12.250;2022-12-18T00:21:34;101419.00;;;-10.50;100.00
39699;BME280;25372;50.582;12.250;2022-12-18T00:31:55;101403.94;;;-9.90;100.00
39699;BME280;25372;50.582;12.250;2022-12-18T00:42:17;101421.94;;;-9.94;100.00
39699;BME280;25372;50.582;12.250;2022-12-18T00:52:52;101425.47;;;-10.08;100.00
39699;BME280;25372;50.582;12.250;2022-12-18T01:03:14;101436.72;;;-10.26;99.78
39699;BME280;25372;50.582;12.250;2022-12-18T01:13:37;101445.16;;;-10.10;100.00
39699;BME280;25372;50.582;12.250;2022-12-18T01:24:00;101446.25;;;-10.40;100.00
39699;BME280;25372;50.582;12.250;2022-12-18T01:34:21;101458.09;;;-10.28;99.75
39699;BME280;25372;50.582;12.250;2022-12-18T01:45:02;101445.41;;;-10.38;99.92
39699;BME280;25372;50.582;12.250;2022-12-18T01:55:26;101459.81;;;-10.29;100.00
39699;BME280;25372;50.582;12.250;2022-12-18T02:05:54;101467.75;;;-10.67;98.97
39699;BME280;25372;50.582;12.250;2022-12-18T02:16:21;101452.53;;;-10.88;99.34
39699;BME280;25372;50.582;12.250;2022-12-18T02:26:49;101464.53;;;-11.10;97.41
39699;BME280;25372;50.582;12.250;2022-12-18T02:37:16;101485.06;;;-11.19;97.82
39699;BME280;25372;50.582;12.250;2022-12-18T02:47:42;101467.25;;;-11.56;97.16
39699;BME280;25372;50.582;12.250;2022-12-18T02:58:13;101464.69;;;-11.50;97.68
39699;BME280;25372;50.582;12.250;2022-12-18T03:08:38;101462.09;;;-11.41;97.83
39699;BME280;25372;50.582;12.250;2022-12-18T03:19:05;101480.75;;;-11.06;99.18
39699;BME280;25372;50.582;12.250;2022-12-18T03:29:35;101491.00;;;-11.14;97.90
39699;BME280;25372;50.582;12.250;2022-12-18T03:39:58;101483.41;;;-11.38;97.40
39699;BME280;25372;50.582;12.250;2022-12-18T03:50:29;101490.25;;;-11.42;97.57
39699;BME280;25372;50.582;12.250;2022-12-18T04:00:53;101503.03;;;-11.45;97.64
39699;BME280;25372;50.582;12.250;2022-12-18T04:11:18;101507.31;;;-11.40;97.26
39699;BME280;25372;50.582;12.250;2022-12-18T04:21:40;101485.13;;;-11.50;96.27
39699;BME280;25372;50.582;12.250;2022-12-18T04:32:05;101517.56;;;-11.63;96.19
39699;BME280;25372;50.582;12.250;2022-12-18T04:42:27;101525.22;;;-11.63;96.84
39699;BME280;25372;50.582;12.250;2022-12-18T04:52:49;101539.69;;;-11.43;98.14
39699;BME280;25372;50.582;12.250;2022-12-18T05:03:10;101526.03;;;-11.27;97.13
39699;BME280;25372;50.582;12.250;2022-12-18T05:13:32;101526.91;;;-11.29;97.72
39699;BME280;25372;50.582;12.250;2022-12-18T05:23:54;101524.34;;;-11.31;97.44
39699;BME280;25372;50.582;12.250;2022-12-18T05:34:16;101517.56;;;-11.63;96.70
39699;BME280;25372;50.582;12.250;2022-12-18T05:44:37;101516.69;;;-11.69;96.56
39699;BME280;25372;50.582;12.250;2022-12-18T05:55:00;101524.38;;;-11.82;95.03
39699;BME280;25372;50.582;12.250;2022-12-18T06:05:20;101534.59;;;-11.76;95.76
39699;BME280;25372;50.582;12.250;2022-12-18T06:15:43;101544.00;;;-12.01;95.39
39699;BME280;25372;50.582;12.250;2022-12-18T06:26:06;101560.13;;;-12.27;95.12
39699;BME280;25372;50.582;12.250;2022-12-18T06:36:28;101563.56;;;-12.20;94.96
39699;BME280;25372;50.582;12.250;2022-12-18T06:46:49;101559.31;;;-12.21;95.42
39699;BME280;25372;50.582;12.250;2022-12-18T06:57:11;101569.53;;;-12.19;94.95
39699;BME280;25372;50.582;12.250;2022-12-18T07:07:33;101586.53;;;-12.34;95.74
39699;BME280;25372;50.582;12.250;2022-12-18T07:17:55;101596.81;;;-12.09;96.14
39699;BME280;25372;50.582;12.250;2022-12-18T07:28:16;101585.75;;;-11.80;97.39
39699;BME280;25372;50.582;12.250;2022-12-18T07:38:39;101607.06;;;-11.24;97.39
39699;BME280;25372;50.582;12.250;2022-12-18T07:49:00;101619.03;;;-11.45;96.47
39699;BME280;25372;50.582;12.250;2022-12-18T07:59:23;101629.25;;;-11.42;95.99
39699;BME280;25372;50.582;12.250;2022-12-18T08:09:44;101615.63;;;-11.39;97.39
39699;BME280;25372;50.582;12.250;2022-12-18T08:20:09;101599.38;;;-11.07;96.74
39699;BME280;25372;50.582;12.250;2022-12-18T08:30:30;101610.38;;;-10.66;97.78
39699;BME280;25372;50.582;12.250;2022-12-18T08:40:58;101604.22;;;-10.25;99.29
39699;BME280;25372;50.582;12.250;2022-12-18T08:51:19;101613.41;;;-9.86;100.00
39699;BME280;25372;50.582;12.250;2022-12-18T09:01:41;101628.47;;;-9.35;100.00
39699;BME280;25372;50.582;12.250;2022-12-18T09:12:02;101615.41;;;-9.15;100.00
39699;BME280;25372;50.582;12.250;2022-12-18T09:22:24;101646.00;;;-8.87;99.76
39699;BME280;25372;50.582;12.250;2022-12-18T09:32:45;101647.63;;;-8.75;100.00
39699;BME280;25372;50.582;12.250;2022-12-18T09:43:14;101622.28;;;-8.37;100.00
39699;BME280;25372;50.582;12.250;2022-12-18T09:53:37;101630.41;;;-8.00;99.72
39699;BME280;25372;50.582;12.250;2022-12-18T10:04:01;101627.84;;;-7.42;100.00
39699;BME280;25372;50.582;12.250;2022-12-18T10:14:27;101588.44;;;-6.96;99.84
39699;BME280;25372;50.582;12.250;2022-12-18T10:24:56;101574.00;;;-6.61;99.72
39699;BME280;25372;50.582;12.250;2022-12-18T10:35:22;101552.41;;;-6.16;98.74
39699;BME280;25372;50.582;12.250;2022-12-18T10:45:58;101531.72;;;-6.15;97.90
39699;BME280;25372;50.582;12.250;2022-12-18T10:56:20;101530.59;;;-6.01;98.52
39699;BME280;25372;50.582;12.250;2022-12-18T11:06:55;101530.38;;;-5.57;97.84
39699;BME280;25372;50.582;12.250;2022-12-18T11:17:19;101508.81;;;-5.23;95.29
39699;BME280;25372;50.582;12.250;2022-12-18T11:27:47;101497.72;;;-5.27;95.68
39699;BME280;25372;50.582;12.250;2022-12-18T11:38:21;101486.13;;;-5.12;94.20
39699;BME280;25372;50.582;12.250;2022-12-18T11:48:48;101501.28;;;-5.00;93.95
39699;BME280;25372;50.582;12.250;2022-12-18T11:59:17;101515.50;;;-4.85;93.65
39699;BME280;25372;50.582;12.250;2022-12-18T12:09:47;101518.97;;;-4.84;92.77
39699;BME280;25372;50.582;12.250;2022-12-18T12:20:16;101526.25;;;-4.69;90.93
39699;BME280;25372;50.582;12.250;2022-12-18T12:30:50;101526.75;;;-4.86;92.69
39699;BME280;25372;50.582;12.250;2022-12-18T12:41:18;101551.38;;;-4.73;90.61
39699;BME280;25372;50.582;12.250;2022-12-18T12:52:03;101529.38;;;-4.87;91.19
39699;BME280;25372;50.582;12.250;2022-12-18T13:02:30;101527.03;;;-4.97;91.04
39699;BME280;25372;50.582;12.250;2022-12-18T13:12:58;101517.97;;;-5.12;91.58
39699;BME280;25372;50.582;12.250;2022-12-18T13:23:31;101507.09;;;-5.25;91.58
39699;BME280;25372;50.582;12.250;2022-12-18T13:34:15;101514.16;;;-5.30;91.57
39699;BME280;25372;50.582;12.250;2022-12-18T13:44:38;101515.72;;;-5.24;91.18
39699;BME280;25372;50.582;12.250;2022-12-18T13:55:01;101509.44;;;-5.14;91.26
39699;BME280;25372;50.582;12.250;2022-12-18T14:05:23;101498.78;;;-5.36;91.56
39699;BME280;25372;50.582;12.250;2022-12-18T14:15:47;101522.97;;;-5.73;94.32
39699;BME280;25372;50.582;12.250;2022-12-18T14:26:21;101510.38;;;-5.85;94.88
39699;BME280;25372;50.582;12.250;2022-12-18T14:36:52;101496.28;;;-6.06;96.37
39699;BME280;25372;50.582;12.250;2022-12-18T14:47:15;101490.53;;;-6.19;96.98
39699;BME280;25372;50.582;12.250;2022-12-18T14:57:38;101500.53;;;-6.43;97.20
39699;BME280;25372;50.582;12.250;2022-12-18T15:08:02;101493.59;;;-6.80;97.46
39699;BME280;25372;50.582;12.250;2022-12-18T15:18:30;101483.03;;;-7.11;98.21
39699;BME280;25372;50.582;12.250;2022-12-18T15:28:54;101484.63;;;-7.04;99.16
39699;BME280;25372;50.582;12.250;2022-12-18T15:39:18;101469.16;;;-7.04;99.01
39699;BME280;25372;50.582;12.250;2022-12-18T15:49:39;101480.97;;;-6.94;98.54
39699;BME280;25372;50.582;12.250;2022-12-18T16:00:01;101478.81;;;-7.15;98.79
39699;BME280;25372;50.582;12.250;2022-12-18T16:10:25;101463.72;;;-7.36;98.97
39699;BME280;25372;50.582;12.250;2022-12-18T16:20:48;101464.38;;;-7.24;100.00
39699;BME280;25372;50.582;12.250;2022-12-18T16:31:09;101462.66;;;-7.22;99.30
39699;BME280;25372;50.582;12.250;2022-12-18T16:41:31;101458.22;;;-7.17;100.00
39699;BME280;25372;50.582;12.250;2022-12-18T16:51:53;101450.59;;;-7.22;99.37
39699;BME280;25372;50.582;12.250;2022-12-18T17:02:16;101452.25;;;-7.18;100.00
39699;BME280;25372;50.582;12.250;2022-12-18T17:12:38;101443.00;;;-7.28;100.00
39699;BME280;25372;50.582;12.250;2022-12-18T17:23:00;101437.56;;;-7.14;100.00
39699;BME280;25372;50.582;12.250;2022-12-18T17:33:22;101430.78;;;-7.20;100.00
39699;BME280;25372;50.582;12.250;2022-12-18T17:43:50;101377.50;;;-7.60;100.00
39699;BME280;25372;50.582;12.250;2022-12-18T17:54:11;101412.75;;;-7.20;100.00
39699;BME280;25372;50.582;12.250;2022-12-18T18:04:33;101410.13;;;-7.16;100.00
39699;BME280;25372;50.582;12.250;2022-12-18T18:14:54;101369.88;;;-7.21;100.00
39699;BME280;25372;50.582;12.250;2022-12-18T18:25:16;101398.00;;;-6.71;100.00
39699;BME280;25372;50.582;12.250;2022-12-18T18:35:40;101375.84;;;-6.42;100.00
39699;BME280;25372;50.582;12.250;2022-12-18T18:46:04;101372.00;;;-6.25;100.00
39699;BME280;25372;50.582;12.250;2022-12-18T18:56:25;101369.97;;;-6.13;99.21
39699;BME280;25372;50.582;12.250;2022-12-18T19:06:48;101322.72;;;-6.16;98.56
39699;BME280;25372;50.582;12.250;2022-12-18T19:17:09;101326.09;;;-6.13;98.62
39699;BME280;25372;50.582;12.250;2022-12-18T19:27:32;101316.34;;;-6.01;99.38
39699;BME280;25372;50.582;12.250;2022-12-18T19:37:55;101295.81;;;-5.76;96.73
39699;BME280;25372;50.582;12.250;2022-12-18T19:48:17;101270.66;;;-5.69;97.30
39699;BME280;25372;50.582;12.250;2022-12-18T19:58:39;101275.78;;;-5.68;97.43
39699;BME280;25372;50.582;12.250;2022-12-18T20:09:03;101260.00;;;-5.58;95.65
39699;BME280;25372;50.582;12.250;2022-12-18T20:19:25;101253.19;;;-5.61;95.19
39699;BME280;25372;50.582;12.250;2022-12-18T20:29:47;101274.75;;;-5.62;95.51
39699;BME280;25372;50.582;12.250;2022-12-18T20:40:09;101262.50;;;-5.55;96.29
39699;BME280;25372;50.582;12.250;2022-12-18T20:50:31;101215.03;;;-5.51;95.85
39699;BME280;25372;50.582;12.250;2022-12-18T21:01:01;101232.09;;;-5.46;95.14
39699;BME280;25372;50.582;12.250;2022-12-18T21:11:27;101230.19;;;-5.40;94.78
39699;BME280;25372;50.582;12.250;2022-12-18T21:22:06;101229.78;;;-5.27;93.47
39699;BME280;25372;50.582;12.250;2022-12-18T21:32:28;101165.09;;;-5.52;92.96
39699;BME280;25372;50.582;12.250;2022-12-18T21:42:49;101217.47;;;-5.18;92.45
39699;BME280;25372;50.582;12.250;2022-12-18T21:53:29;101211.59;;;-5.23;92.20
39699;BME280;25372;50.582;12.250;2022-12-18T22:03:50;101201.09;;;-5.19;91.31
39699;BME280;25372;50.582;12.250;2022-12-18T22:14:15;101198.81;;;-5.28;92.33
39699;BME280;25372;50.582;12.250;2022-12-18T22:24:36;101195.47;;;-5.32;92.74
39699;BME280;25372;50.582;12.250;2022-12-18T22:34:59;101164.81;;;-5.43;93.26
39699;BME280;25372;50.582;12.250;2022-12-18T22:45:20;101161.66;;;-5.24;92.30
39699;BME280;25372;50.582;12.250;2022-12-18T22:55:42;101144.06;;;-5.14;91.38
39699;BME280;25372;50.582;12.250;2022-12-18T23:06:03;101136.03;;;-5.05;90.02
39699;BME280;25372;50.582;12.250;2022-12-18T23:16:27;101135.22;;;-5.07;89.58
39699;BME280;25372;50.582;12.250;2022-12-18T23:26:48;101102.81;;;-5.17;90.11
39699;BME280;25372;50.582;12.250;2022-12-18T23:37:10;101071.97;;;-5.22;90.66
39699;BME280;25372;50.582;12.250;2022-12-18T23:47:30;101045.34;;;-5.24;90.67
39699;BME280;25372;50.582;12.250;2022-12-18T23:57:53;101039.25;;;-5.23;89.49
